Houston, Texas
Traffic Map
Current Weather Conditions
Houston, Texas
Overcast Haze
Overcast
79°
Feels Like: 82°
Wind Chill: 79° Ceiling: 400
Heat Index: 82° Visibility: 0.25mi
Dew Point: 75° Wind: 3mph
Humidity: 89% Direction: 330° (NNW)
Pressure: 29.92in Gusts: 0mph
Raw Report DataKIAH 261026Z 33003KT 1/4SM BR BKN004 OVC012 26/24 A2992 RMK AO2 SFC VIS 4
Traffic Incident Summary
Active as of:
Severity:
Category:
InformationThere was an issue retrieving the traffic information for this location. Please try a different location or try again shortly.
Advertisements
Track Severe Weather on mobile